createdAt,value
2023-04-18T00:00:02.858Z,72.2831
2023-04-18T00:01:03.924Z,72.3167
2023-04-18T00:02:05.116Z,72.3244
2023-04-18T00:03:06.695Z,72.3455
2023-04-18T00:04:08.528Z,72.4009
2023-04-18T00:05:09.883Z,72.4816
2023-04-18T00:06:11.000Z,72.5745
2023-04-18T00:07:12.160Z,72.6017
2023-04-18T00:08:13.294Z,72.6139
2023-04-18T00:09:14.560Z,72.6257
2023-04-18T00:10:15.669Z,72.6082
2023-04-18T00:11:16.747Z,72.5945
2023-04-18T00:12:17.831Z,72.5923
2023-04-18T00:13:18.972Z,72.5876
2023-04-18T00:14:20.067Z,72.5817
2023-04-18T00:15:21.178Z,72.5638
2023-04-18T00:16:22.314Z,72.5210
2023-04-18T00:17:23.505Z,72.4688
2023-04-18T00:18:24.622Z,72.4207
2023-04-18T00:19:25.739Z,72.2645
2023-04-18T00:20:26.854Z,71.9300
2023-04-18T00:21:27.951Z,71.8114
2023-04-18T00:22:29.078Z,71.7772
2023-04-18T00:23:30.233Z,71.8114
2023-04-18T00:24:31.319Z,71.9128
2023-04-18T00:25:32.447Z,72.0198
2023-04-18T00:26:33.517Z,72.1162
2023-04-18T00:27:34.695Z,72.1826
2023-04-18T00:28:35.764Z,72.2430
2023-04-18T00:29:36.928Z,72.2969
2023-04-18T00:30:38.092Z,72.3336
2023-04-18T00:31:39.181Z,72.3083
2023-04-18T00:32:40.314Z,72.0435
2023-04-18T00:33:41.387Z,71.7286
2023-04-18T00:34:42.551Z,71.7254
2023-04-18T00:35:43.678Z,71.8070
2023-04-18T00:36:44.763Z,71.9032
2023-04-18T00:37:45.841Z,71.9762
2023-04-18T00:38:46.958Z,72.0541
2023-04-18T00:39:48.094Z,72.1279
2023-04-18T00:40:49.246Z,72.1929
2023-04-18T00:41:50.364Z,72.2504
2023-04-18T00:42:51.431Z,72.2917
2023-04-18T00:43:52.705Z,72.2751
2023-04-18T00:44:53.736Z,72.2422
2023-04-18T00:45:54.861Z,72.2336
2023-04-18T00:46:55.940Z,72.2103
2023-04-18T00:47:57.012Z,72.2328
2023-04-18T00:48:58.095Z,72.1314
2023-04-18T00:49:59.227Z,71.9406
2023-04-18T00:51:00.303Z,71.9090
2023-04-18T00:52:01.393Z,71.9435
2023-04-18T00:53:02.507Z,71.9532
2023-04-18T00:54:03.632Z,71.9829
2023-04-18T00:55:04.714Z,72.0198
2023-04-18T00:56:05.833Z,72.0420
2023-04-18T00:57:06.915Z,72.1033
2023-04-18T00:58:08.013Z,72.1905
2023-04-18T00:59:09.071Z,72.2502
2023-04-18T01:00:10.194Z,72.2929
2023-04-18T01:01:11.341Z,72.2862
2023-04-18T01:02:12.503Z,72.2642
2023-04-18T01:03:13.766Z,72.2623
2023-04-18T01:04:15.137Z,72.3011
2023-04-18T01:05:16.646Z,72.3588
2023-04-18T01:06:17.770Z,72.4035
2023-04-18T01:07:18.891Z,72.4403
2023-04-18T01:08:19.965Z,72.4712
2023-04-18T01:09:21.087Z,72.4748
2023-04-18T01:10:22.223Z,72.4723
2023-04-18T01:11:23.510Z,72.4487
2023-04-18T01:12:24.584Z,72.4395
2023-04-18T01:13:25.724Z,72.4378
2023-04-18T01:14:26.773Z,72.4330
2023-04-18T01:15:27.921Z,72.4074
2023-04-18T01:16:29.032Z,72.2375
2023-04-18T01:17:30.219Z,71.7816
2023-04-18T01:18:31.362Z,71.6613
2023-04-18T01:19:32.717Z,71.7261
2023-04-18T01:20:33.873Z,71.7860
2023-04-18T01:21:35.023Z,71.8376
2023-04-18T01:22:36.166Z,71.8401
2023-04-18T01:23:37.283Z,71.8333
2023-04-18T01:24:38.377Z,71.8256
2023-04-18T01:25:39.626Z,71.8421
2023-04-18T01:26:40.665Z,71.8812
2023-04-18T01:27:41.824Z,71.9221
2023-04-18T01:28:42.925Z,71.9526
2023-04-18T01:29:44.016Z,71.9710
2023-04-18T01:30:45.224Z,71.9848
2023-04-18T01:31:46.431Z,72.0344
2023-04-18T01:32:47.573Z,72.1024
2023-04-18T01:33:48.669Z,72.1717
2023-04-18T01:34:49.765Z,72.2162
2023-04-18T01:35:51.099Z,72.2490
2023-04-18T01:36:52.150Z,72.2615
2023-04-18T01:37:53.215Z,72.2495
2023-04-18T01:38:54.348Z,72.2308
2023-04-18T01:39:55.510Z,72.1979
2023-04-18T01:40:56.603Z,72.0592
2023-04-18T01:41:57.862Z,71.8676
2023-04-18T01:42:58.942Z,71.7843
2023-04-18T01:44:00.016Z,71.7516
2023-04-18T01:45:01.140Z,71.7448
2023-04-18T01:46:02.301Z,71.6634
2023-04-18T01:47:03.440Z,71.4700
2023-04-18T01:48:04.552Z,71.4626
2023-04-18T01:49:05.640Z,71.5300
2023-04-18T01:50:06.743Z,71.6350
2023-04-18T01:51:07.852Z,71.7449
2023-04-18T01:52:09.020Z,71.8153
2023-04-18T01:53:10.465Z,71.8481
2023-04-18T01:54:11.823Z,71.9084
2023-04-18T01:55:13.442Z,71.9985
2023-04-18T01:56:14.535Z,72.0428
2023-04-18T01:57:15.646Z,71.9985
2023-04-18T01:58:16.748Z,72.0042
2023-04-18T01:59:17.955Z,71.9512
2023-04-18T02:00:19.109Z,71.8508
2023-04-18T02:01:20.340Z,71.8384
2023-04-18T02:02:21.768Z,71.9212
2023-04-18T02:03:23.273Z,72.0306
2023-04-18T02:04:24.484Z,72.0992
2023-04-18T02:05:25.601Z,72.1872
2023-04-18T02:06:26.995Z,72.2697
2023-04-18T02:07:28.151Z,72.3309
2023-04-18T02:08:29.272Z,72.3587
2023-04-18T02:09:30.388Z,72.3780
2023-04-18T02:10:31.523Z,72.4158
2023-04-18T02:11:32.673Z,72.4410
2023-04-18T02:12:33.753Z,72.4511
2023-04-18T02:13:35.033Z,72.4082
2023-04-18T02:14:36.385Z,72.3943
2023-04-18T02:15:37.549Z,72.3879
2023-04-18T02:16:38.708Z,72.4167
2023-04-18T02:17:39.799Z,72.4504
2023-04-18T02:18:40.960Z,72.4565
2023-04-18T02:19:42.086Z,72.4499
2023-04-18T02:20:43.212Z,72.4389
2023-04-18T02:21:44.324Z,72.4385
2023-04-18T02:22:45.481Z,72.4598
2023-04-18T02:23:46.600Z,72.4421
2023-04-18T02:24:47.707Z,72.4069
2023-04-18T02:25:48.804Z,72.3926
2023-04-18T02:26:49.927Z,72.3816
2023-04-18T02:27:51.034Z,72.3315
2023-04-18T02:28:52.266Z,72.2705
2023-04-18T02:29:53.442Z,72.2550
2023-04-18T02:30:54.576Z,72.2351
2023-04-18T02:31:55.785Z,72.0975
2023-04-18T02:32:56.977Z,72.0233
2023-04-18T02:33:59.219Z,72.0528
2023-04-18T02:35:00.317Z,72.1035
2023-04-18T02:36:01.426Z,72.1690
2023-04-18T02:37:02.576Z,72.2354
2023-04-18T02:38:03.807Z,72.2769
2023-04-18T02:39:04.936Z,72.3120
2023-04-18T02:40:06.061Z,72.3515
2023-04-18T02:41:07.203Z,72.3967
2023-04-18T02:42:08.335Z,72.4423
2023-04-18T02:43:09.510Z,72.4722
2023-04-18T02:44:10.626Z,72.5042
2023-04-18T02:45:11.856Z,72.5249
2023-04-18T02:46:13.041Z,72.5452
2023-04-18T02:47:14.188Z,72.5496
2023-04-18T02:48:15.424Z,72.5323
2023-04-18T02:49:16.595Z,72.5290
2023-04-18T02:50:17.673Z,72.5421
2023-04-18T02:51:18.908Z,72.5645
2023-04-18T02:52:20.047Z,72.5964
2023-04-18T02:53:21.211Z,72.6377
2023-04-18T02:54:22.307Z,72.6650
2023-04-18T02:55:23.455Z,72.6885
2023-04-18T02:56:24.539Z,72.6327
2023-04-18T02:57:25.643Z,72.6133
2023-04-18T02:58:26.784Z,72.6419
2023-04-18T02:59:27.924Z,72.6373
2023-04-18T03:00:29.047Z,72.6419
2023-04-18T03:01:30.199Z,72.6778
2023-04-18T03:02:31.454Z,72.6919
2023-04-18T03:03:32.742Z,72.6565
2023-04-18T03:04:33.945Z,72.6258
2023-04-18T03:05:35.159Z,72.6626
2023-04-18T03:06:36.288Z,72.7186
2023-04-18T03:07:37.428Z,72.7219
2023-04-18T03:08:38.533Z,72.7381
2023-04-18T03:09:39.674Z,72.7643
2023-04-18T03:10:40.812Z,72.7715
2023-04-18T03:11:42.104Z,72.7466
2023-04-18T03:12:43.249Z,72.6725
2023-04-18T03:13:44.410Z,72.6458
2023-04-18T03:14:45.548Z,72.6721
2023-04-18T03:15:46.708Z,72.7171
2023-04-18T03:16:47.812Z,72.7526
2023-04-18T03:17:49.136Z,72.7633
2023-04-18T03:18:50.280Z,72.7444
2023-04-18T03:19:51.459Z,72.7479
2023-04-18T03:20:52.653Z,72.7867
2023-04-18T03:21:53.798Z,72.8305
2023-04-18T03:22:55.022Z,72.8586
2023-04-18T03:23:56.120Z,72.8566
2023-04-18T03:24:57.230Z,72.8384
2023-04-18T03:25:58.346Z,72.8394
2023-04-18T03:26:59.532Z,72.8543
2023-04-18T03:28:00.706Z,72.8765
2023-04-18T03:29:01.945Z,72.8807
2023-04-18T03:30:03.139Z,72.8743
2023-04-18T03:31:04.389Z,72.8801
2023-04-18T03:32:05.533Z,72.9012
2023-04-18T03:33:06.625Z,72.9440
2023-04-18T03:34:07.800Z,73.0106
2023-04-18T03:35:08.967Z,73.0730
2023-04-18T03:36:10.095Z,73.1084
2023-04-18T03:37:11.204Z,73.1343
2023-04-18T03:38:12.375Z,73.1606
2023-04-18T03:39:13.485Z,73.1897
2023-04-18T03:40:14.640Z,73.2273
2023-04-18T03:41:15.765Z,73.2613
2023-04-18T03:42:16.923Z,73.2817
2023-04-18T03:43:18.076Z,73.3038
2023-04-18T03:44:19.250Z,73.3094
2023-04-18T03:45:20.425Z,73.2885
2023-04-18T03:46:21.616Z,73.2536
2023-04-18T03:47:22.749Z,73.2189
2023-04-18T03:48:23.915Z,73.2133
2023-04-18T03:49:25.036Z,73.1933
2023-04-18T03:50:26.265Z,73.1755
2023-04-18T03:51:27.363Z,73.1843
2023-04-18T03:52:29.830Z,73.1874
2023-04-18T03:53:28.775Z,73.1900
2023-04-18T03:54:29.916Z,73.1627
2023-04-18T03:55:31.065Z,73.1352
2023-04-18T03:56:32.182Z,73.1543
2023-04-18T03:57:33.277Z,73.1743
2023-04-18T03:58:34.403Z,73.1768
2023-04-18T03:59:35.529Z,73.1758
2023-04-18T04:00:36.694Z,73.1653
2023-04-18T04:01:37.909Z,73.1469
2023-04-18T04:02:39.149Z,73.1512
2023-04-18T04:03:40.409Z,73.1742
2023-04-18T04:04:41.913Z,73.1877
2023-04-18T04:05:43.044Z,73.1705
2023-04-18T04:06:44.184Z,73.1470
2023-04-18T04:07:45.378Z,73.1330
2023-04-18T04:08:46.565Z,73.1343
2023-04-18T04:09:47.681Z,73.1256
2023-04-18T04:10:48.843Z,73.1079
2023-04-18T04:11:50.008Z,73.0889
2023-04-18T04:12:51.131Z,73.0784
2023-04-18T04:13:52.282Z,73.0661
2023-04-18T04:14:53.457Z,73.0683
2023-04-18T04:15:54.620Z,73.0857
2023-04-18T04:16:55.781Z,73.1128
2023-04-18T04:17:57.080Z,73.1150
2023-04-18T04:18:58.261Z,73.0855
2023-04-18T04:19:59.372Z,73.0342
2023-04-18T04:21:00.531Z,73.0264
2023-04-18T04:22:01.610Z,73.0367
2023-04-18T04:23:02.796Z,73.0577
2023-04-18T04:24:03.952Z,73.0741
2023-04-18T04:25:05.083Z,73.0983
2023-04-18T04:26:06.202Z,73.0946
2023-04-18T04:27:07.377Z,73.0790
2023-04-18T04:28:08.591Z,73.0505
2023-04-18T04:29:09.716Z,73.0079
2023-04-18T04:30:13.308Z,72.9741
2023-04-18T04:31:12.133Z,72.9422
2023-04-18T04:32:13.324Z,72.9159
2023-04-18T04:33:14.535Z,72.9179
2023-04-18T04:34:15.958Z,72.9205
2023-04-18T04:35:17.311Z,72.9426
2023-04-18T04:36:19.006Z,72.9865
2023-04-18T04:37:20.245Z,73.0170
2023-04-18T04:38:21.440Z,73.0244
2023-04-18T04:39:22.618Z,73.0364
2023-04-18T04:40:23.733Z,73.0407
2023-04-18T04:41:24.910Z,72.9980
2023-04-18T04:42:26.052Z,72.9638
2023-04-18T04:43:27.208Z,72.9668
2023-04-18T04:44:28.364Z,72.9591
2023-04-18T04:45:29.569Z,72.9341
2023-04-18T04:46:30.684Z,72.9441
2023-04-18T04:47:31.947Z,72.9695
2023-04-18T04:48:33.212Z,73.0131
2023-04-18T04:49:34.412Z,73.0294
2023-04-18T04:50:35.583Z,73.0227
2023-04-18T04:51:36.804Z,72.9973
2023-04-18T04:52:37.990Z,72.9866
2023-04-18T04:53:39.376Z,72.9890
2023-04-18T04:54:40.800Z,73.0143
2023-04-18T04:55:42.007Z,73.0642
2023-04-18T04:56:43.169Z,73.1290
2023-04-18T04:57:44.322Z,73.1894
2023-04-18T04:58:45.445Z,73.2269
2023-04-18T04:59:46.571Z,73.2607
2023-04-18T05:00:47.733Z,73.2644
2023-04-18T05:01:48.994Z,73.2446
2023-04-18T05:02:50.520Z,73.2508
2023-04-18T05:03:51.984Z,73.2608
2023-04-18T05:04:53.188Z,73.2712
2023-04-18T05:05:54.361Z,73.2774
2023-04-18T05:06:55.440Z,73.3052
2023-04-18T05:07:56.593Z,73.3131
2023-04-18T05:08:57.819Z,73.3213
2023-04-18T05:09:58.985Z,73.3305
2023-04-18T05:11:00.168Z,73.3375
2023-04-18T05:12:01.421Z,73.3459
2023-04-18T05:13:02.588Z,73.3817
2023-04-18T05:14:03.781Z,73.4225
2023-04-18T05:15:04.934Z,73.4274
2023-04-18T05:16:06.154Z,73.4259
2023-04-18T05:17:07.354Z,73.4280
2023-04-18T05:18:08.632Z,73.4329
2023-04-18T05:19:09.819Z,73.4224
2023-04-18T05:20:10.956Z,73.4060
2023-04-18T05:21:12.182Z,73.4084
2023-04-18T05:22:13.320Z,73.4145
2023-04-18T05:23:14.486Z,73.4419
2023-04-18T05:24:15.955Z,73.4712
2023-04-18T05:25:17.374Z,73.4991
2023-04-18T05:26:18.502Z,73.5192
2023-04-18T05:27:19.637Z,73.5364
2023-04-18T05:28:20.749Z,73.5489
2023-04-18T05:29:21.950Z,73.5448
2023-04-18T05:30:23.050Z,73.5277
2023-04-18T05:31:24.194Z,73.5006
2023-04-18T05:32:25.366Z,73.4387
2023-04-18T05:33:26.466Z,73.4109
2023-04-18T05:34:27.651Z,73.4162
2023-04-18T05:35:28.769Z,73.4321
2023-04-18T05:36:29.876Z,73.4467
2023-04-18T05:37:31.047Z,73.4482
2023-04-18T05:38:32.216Z,73.4836
2023-04-18T05:39:33.373Z,73.5401
2023-04-18T05:40:34.471Z,73.5989
2023-04-18T05:41:35.645Z,73.6345
2023-04-18T05:42:36.762Z,73.6515
2023-04-18T05:43:38.001Z,73.6358
2023-04-18T05:44:39.097Z,73.6317
2023-04-18T05:45:40.277Z,73.6308
2023-04-18T05:46:41.524Z,73.6358
2023-04-18T05:47:42.740Z,73.6236
2023-04-18T05:48:43.913Z,73.6085
2023-04-18T05:49:45.029Z,73.5991
2023-04-18T05:50:46.228Z,73.5693
2023-04-18T05:51:47.367Z,73.5508
2023-04-18T05:52:48.473Z,73.5520
2023-04-18T05:53:49.640Z,73.5599
2023-04-18T05:54:50.766Z,73.5373
2023-04-18T05:55:51.889Z,73.5219
2023-04-18T05:56:53.048Z,73.5257
2023-04-18T05:57:54.219Z,73.5110
2023-04-18T05:58:55.344Z,73.5148
2023-04-18T05:59:56.487Z,73.5236
2023-04-18T06:00:57.620Z,73.5164
2023-04-18T06:01:58.805Z,73.5087
2023-04-18T06:03:00.150Z,73.5048
2023-04-18T06:04:01.814Z,73.4875
2023-04-18T06:05:03.319Z,73.4635
2023-04-18T06:06:04.762Z,73.4510
2023-04-18T06:07:05.909Z,73.4358
2023-04-18T06:08:07.151Z,73.4251
2023-04-18T06:09:08.244Z,73.4245
2023-04-18T06:10:09.386Z,73.4159
2023-04-18T06:11:10.522Z,73.3828
2023-04-18T06:12:11.874Z,73.3620
2023-04-18T06:13:13.175Z,73.3581
2023-04-18T06:14:14.442Z,73.3586
2023-04-18T06:15:15.682Z,73.3379
2023-04-18T06:16:16.957Z,73.2969
2023-04-18T06:17:18.154Z,73.2963
2023-04-18T06:18:19.319Z,73.3196
2023-04-18T06:19:20.546Z,73.3499
2023-04-18T06:20:21.695Z,73.3800
2023-04-18T06:21:22.880Z,73.3966
2023-04-18T06:22:23.995Z,73.4007
2023-04-18T06:23:25.185Z,73.4013
2023-04-18T06:24:26.380Z,73.3963
2023-04-18T06:25:27.536Z,73.3853
2023-04-18T06:26:28.748Z,73.3629
2023-04-18T06:27:31.922Z,73.3316
2023-04-18T06:28:30.627Z,73.2899
2023-04-18T06:29:31.780Z,73.2655
2023-04-18T06:30:32.913Z,73.2668
2023-04-18T06:31:34.054Z,73.2494
2023-04-18T06:32:35.304Z,73.2465
2023-04-18T06:33:36.700Z,73.2701
2023-04-18T06:34:37.870Z,73.2947
2023-04-18T06:35:39.079Z,73.3089
2023-04-18T06:36:40.209Z,73.3042
2023-04-18T06:37:41.348Z,73.3078
2023-04-18T06:38:42.478Z,73.3001
2023-04-18T06:39:43.605Z,73.2429
2023-04-18T06:40:44.806Z,73.1880
2023-04-18T06:41:45.929Z,73.1842
2023-04-18T06:42:47.084Z,73.1851
2023-04-18T06:44:02.109Z,73.1544
2023-04-18T06:44:50.029Z,73.0527
2023-04-18T06:45:51.207Z,72.9951
2023-04-18T06:46:52.377Z,72.9795
2023-04-18T06:47:53.560Z,72.9513
2023-04-18T06:48:54.703Z,72.8742
2023-04-18T06:49:55.861Z,72.8674
2023-04-18T06:50:56.992Z,72.8601
2023-04-18T06:51:58.105Z,72.8348
2023-04-18T06:52:59.352Z,72.8279
2023-04-18T06:54:00.466Z,72.8409
2023-04-18T06:55:01.670Z,72.8660
2023-04-18T06:56:02.916Z,72.8816
2023-04-18T06:57:04.092Z,72.8819
2023-04-18T06:58:05.263Z,72.8514
2023-04-18T06:59:06.501Z,72.8594
2023-04-18T07:00:07.687Z,72.8793
2023-04-18T07:01:08.925Z,72.8754
2023-04-18T07:02:10.379Z,72.8374
2023-04-18T07:03:11.920Z,72.8160
2023-04-18T07:04:13.655Z,72.8357
2023-04-18T07:05:15.395Z,72.8654
2023-04-18T07:06:16.576Z,72.8642
2023-04-18T07:07:17.766Z,72.8172
2023-04-18T07:08:18.938Z,72.7751
2023-04-18T07:09:20.179Z,72.7404
2023-04-18T07:10:21.354Z,72.7032
2023-04-18T07:11:22.521Z,72.6543
2023-04-18T07:12:23.743Z,72.6043
2023-04-18T07:13:24.881Z,72.5055
2023-04-18T07:14:26.118Z,72.4212
2023-04-18T07:15:27.305Z,72.3460
2023-04-18T07:16:28.552Z,72.2805
2023-04-18T07:17:29.766Z,72.2135
2023-04-18T07:18:37.864Z,72.1632
2023-04-18T07:19:32.796Z,72.1262
2023-04-18T07:20:34.032Z,72.0585
2023-04-18T07:21:35.233Z,72.0563
2023-04-18T07:22:36.419Z,72.0942
2023-04-18T07:23:37.596Z,72.1121
2023-04-18T07:24:38.796Z,72.0233
2023-04-18T07:25:40.037Z,71.8338
2023-04-18T07:26:41.206Z,71.6665
2023-04-18T07:27:42.404Z,71.5419
2023-04-18T07:28:43.632Z,71.5495
2023-04-18T07:29:44.782Z,71.5755
2023-04-18T07:30:45.949Z,71.5887
2023-04-18T07:31:47.112Z,71.5594
2023-04-18T07:32:48.331Z,71.4830
2023-04-18T07:33:49.487Z,71.4120
2023-04-18T07:34:50.693Z,71.3078
2023-04-18T07:35:51.847Z,71.1480
2023-04-18T07:36:53.044Z,70.9632
2023-04-18T07:37:54.219Z,70.8236
2023-04-18T07:38:55.381Z,70.7707
2023-04-18T07:39:56.578Z,70.7313
2023-04-18T07:40:57.725Z,70.7004
2023-04-18T07:41:58.942Z,70.6705
2023-04-18T07:43:00.146Z,70.6126
2023-04-18T07:44:01.308Z,70.4697
2023-04-18T07:45:02.450Z,70.3899
2023-04-18T07:46:03.679Z,70.3578
2023-04-18T07:47:04.881Z,70.2880
2023-04-18T07:48:06.060Z,70.2813
2023-04-18T07:49:07.186Z,70.2644
2023-04-18T07:50:08.369Z,70.2867
2023-04-18T07:51:09.569Z,70.2955
2023-04-18T07:52:10.753Z,70.2792
2023-04-18T07:53:11.931Z,70.1053
2023-04-18T07:54:13.139Z,70.0356
2023-04-18T07:55:14.304Z,70.1022
2023-04-18T07:56:15.536Z,70.0294
2023-04-18T07:57:16.626Z,69.8700
2023-04-18T07:58:17.788Z,69.7385
2023-04-18T07:59:18.986Z,69.5989
2023-04-18T08:00:20.118Z,69.5211
2023-04-18T08:01:21.352Z,69.4237
2023-04-18T08:02:22.596Z,69.1752
2023-04-18T08:03:24.035Z,69.0899
2023-04-18T08:04:27.575Z,69.1542
2023-04-18T08:05:27.770Z,69.1051
2023-04-18T08:06:29.024Z,68.8764
2023-04-18T08:07:30.176Z,68.6109
2023-04-18T08:08:31.322Z,68.4426
2023-04-18T08:09:32.483Z,68.1799
2023-04-18T08:10:33.714Z,68.1619
2023-04-18T08:11:35.004Z,67.9157
2023-04-18T08:12:36.157Z,67.7240
2023-04-18T08:13:37.343Z,67.3851
2023-04-18T08:14:38.523Z,67.0226
2023-04-18T08:15:39.811Z,66.7448
2023-04-18T08:16:41.036Z,66.6648
2023-04-18T08:17:42.315Z,66.5573
2023-04-18T08:18:43.505Z,66.6531
2023-04-18T08:19:44.718Z,66.4632
2023-04-18T08:20:45.886Z,66.1828
2023-04-18T08:21:47.028Z,66.0198
2023-04-18T08:23:04.843Z,65.9160
2023-04-18T08:23:49.990Z,65.9132
2023-04-18T08:25:03.860Z,65.9931
2023-04-18T08:25:52.973Z,65.5679
2023-04-18T08:26:54.236Z,64.8160
2023-04-18T08:27:55.426Z,64.5588
2023-04-18T08:28:56.597Z,64.6123
2023-04-18T08:29:57.771Z,64.6778
2023-04-18T08:30:58.939Z,64.8970
2023-04-18T08:32:00.162Z,64.9702
2023-04-18T08:33:01.581Z,64.8266
2023-04-18T08:34:04.528Z,65.1220
2023-04-18T08:35:03.782Z,65.3197
2023-04-18T08:36:04.925Z,65.4179
2023-04-18T08:37:06.073Z,65.4827
2023-04-18T08:38:07.325Z,65.1419
2023-04-18T08:39:08.514Z,64.5417
2023-04-18T08:40:09.723Z,64.2222
2023-04-18T08:41:10.866Z,63.9520
2023-04-18T08:42:12.069Z,63.4831
2023-04-18T08:43:13.258Z,63.1247
2023-04-18T08:44:14.602Z,62.9816
2023-04-18T08:45:16.004Z,63.1094
2023-04-18T08:46:17.242Z,63.4981
2023-04-18T08:47:18.460Z,63.3652
2023-04-18T08:48:19.840Z,63.0851
2023-04-18T08:49:21.036Z,62.8109
2023-04-18T08:50:22.200Z,62.5400
2023-04-18T08:51:23.339Z,62.5454
2023-04-18T08:52:24.547Z,62.8090
2023-04-18T08:53:25.725Z,63.3065
2023-04-18T08:54:27.488Z,63.5597
2023-04-18T08:55:28.813Z,63.5347
2023-04-18T08:56:29.990Z,63.5450
2023-04-18T08:57:31.211Z,63.2897
2023-04-18T08:58:32.447Z,63.2165
2023-04-18T08:59:33.633Z,63.3617
2023-04-18T09:00:34.739Z,63.5276
2023-04-18T09:01:35.942Z,63.5138
2023-04-18T09:02:37.195Z,63.4409
2023-04-18T09:03:38.567Z,63.4751
2023-04-18T09:04:39.858Z,63.6507
2023-04-18T09:05:41.000Z,63.5803
2023-04-18T09:06:42.166Z,63.3995
2023-04-18T09:07:43.321Z,63.5183
2023-04-18T09:08:44.519Z,63.2410
2023-04-18T09:09:45.662Z,63.3539
2023-04-18T09:10:46.922Z,63.4073
2023-04-18T09:11:48.085Z,63.5327
2023-04-18T09:12:49.302Z,63.2779
2023-04-18T09:13:50.542Z,63.0965
2023-04-18T09:14:51.683Z,63.0218
2023-04-18T09:15:52.917Z,62.8401
2023-04-18T09:16:54.068Z,62.2998
2023-04-18T09:17:55.291Z,62.5067
2023-04-18T09:18:56.459Z,62.6597
2023-04-18T09:19:57.590Z,62.6627
2023-04-18T09:20:58.784Z,61.7529
2023-04-18T09:21:59.946Z,61.2323
2023-04-18T09:23:01.109Z,61.2111
2023-04-18T09:24:02.297Z,61.2833
2023-04-18T09:25:03.483Z,61.4011
2023-04-18T09:26:04.663Z,61.3584
2023-04-18T09:27:05.794Z,61.1436
2023-04-18T09:28:06.951Z,61.0412
2023-04-18T09:29:08.150Z,60.9125
2023-04-18T09:30:09.325Z,61.0050
2023-04-18T09:31:10.474Z,61.3624
2023-04-18T09:32:11.608Z,61.7452
2023-04-18T09:33:12.734Z,61.8856
2023-04-18T09:34:14.134Z,61.8561
2023-04-18T09:35:15.670Z,61.9617
2023-04-18T09:36:16.887Z,62.1283
2023-04-18T09:37:17.993Z,62.1801
2023-04-18T09:38:19.187Z,61.3140
2023-04-18T09:39:20.297Z,60.6748
2023-04-18T09:40:21.439Z,60.2785
2023-04-18T09:41:22.575Z,60.2608
2023-04-18T09:42:24.083Z,60.1931
2023-04-18T09:43:25.776Z,59.7452
2023-04-18T09:44:26.937Z,59.9950
2023-04-18T09:45:28.198Z,60.5751
2023-04-18T09:46:29.372Z,60.8683
2023-04-18T09:47:30.540Z,61.1574
2023-04-18T09:48:31.675Z,60.9119
2023-04-18T09:49:32.845Z,60.0106
2023-04-18T09:50:34.004Z,59.6911
2023-04-18T09:51:35.164Z,59.4970
2023-04-18T09:52:36.283Z,59.6407
2023-04-18T09:53:37.417Z,59.6343
2023-04-18T09:54:38.551Z,59.4150
2023-04-18T09:55:39.714Z,59.3882
2023-04-18T09:56:40.841Z,59.2779
2023-04-18T09:57:41.967Z,59.0610
2023-04-18T09:58:43.105Z,58.9488
2023-04-18T09:59:44.328Z,59.0183
2023-04-18T10:00:46.901Z,59.1623
2023-04-18T10:01:45.829Z,59.2400
2023-04-18T10:02:47.033Z,59.7018
2023-04-18T10:03:48.471Z,59.4339
2023-04-18T10:04:50.035Z,59.6064
2023-04-18T10:05:51.312Z,60.0876
2023-04-18T10:06:52.476Z,60.2536
2023-04-18T10:07:53.607Z,60.1372
2023-04-18T10:08:54.735Z,59.7275
2023-04-18T10:09:55.879Z,59.1638
2023-04-18T10:10:56.990Z,58.8367
2023-04-18T10:11:58.113Z,58.4746
2023-04-18T10:12:59.217Z,57.7467
2023-04-18T10:14:00.328Z,57.1302
2023-04-18T10:15:02.150Z,57.0738
2023-04-18T10:16:03.288Z,57.2360
2023-04-18T10:17:04.410Z,57.6282
2023-04-18T10:18:06.446Z,57.7326
2023-04-18T10:19:07.963Z,57.7867
2023-04-18T10:20:09.111Z,57.7337
2023-04-18T10:21:10.229Z,57.2615
2023-04-18T10:22:11.410Z,57.0792
2023-04-18T10:23:12.625Z,57.1991
2023-04-18T10:24:13.874Z,56.3443
2023-04-18T10:25:15.499Z,56.2462
2023-04-18T10:26:16.814Z,56.4964
2023-04-18T10:27:18.030Z,56.5586
2023-04-18T10:28:19.161Z,56.0833
2023-04-18T10:29:20.298Z,56.3702
2023-04-18T10:30:21.534Z,56.3549
2023-04-18T10:31:22.857Z,55.6360
2023-04-18T10:32:24.129Z,54.9727
2023-04-18T10:33:30.894Z,55.0108
2023-04-18T10:34:26.945Z,55.4468
2023-04-18T10:35:28.065Z,55.2235
2023-04-18T10:36:29.275Z,55.1460
2023-04-18T10:37:30.308Z,55.2822
2023-04-18T10:38:31.418Z,55.3885
2023-04-18T10:39:32.556Z,55.4260
2023-04-18T10:40:33.733Z,55.7171
2023-04-18T10:41:34.843Z,55.9999
2023-04-18T10:42:35.964Z,56.2228
2023-04-18T10:43:37.117Z,56.8189
2023-04-18T10:44:38.280Z,56.9236
2023-04-18T10:45:39.411Z,56.9627
2023-04-18T10:46:40.597Z,56.5178
2023-04-18T10:47:41.908Z,55.7231
2023-04-18T10:48:43.133Z,55.4401
2023-04-18T10:49:44.268Z,55.5402
2023-04-18T10:50:45.373Z,56.2181
2023-04-18T10:51:46.471Z,56.0368
2023-04-18T10:52:47.635Z,56.4646
2023-04-18T10:53:48.760Z,56.4818
2023-04-18T10:54:49.920Z,55.8157
2023-04-18T10:55:51.052Z,55.3667
2023-04-18T10:56:52.194Z,54.8444
2023-04-18T10:57:53.302Z,54.8691
2023-04-18T10:58:54.484Z,54.9179
2023-04-18T10:59:55.542Z,54.9886
2023-04-18T11:00:56.805Z,55.2616
2023-04-18T11:01:57.988Z,55.9296
2023-04-18T11:02:59.209Z,56.1940
2023-04-18T11:04:00.517Z,56.6980
2023-04-18T11:05:01.884Z,56.9082
2023-04-18T11:06:03.003Z,56.2238
2023-04-18T11:07:04.734Z,55.5627
2023-04-18T11:08:05.824Z,55.5709
2023-04-18T11:09:06.953Z,55.7191
2023-04-18T11:10:08.007Z,55.4354
2023-04-18T11:11:09.143Z,54.5146
2023-04-18T11:12:10.263Z,53.9307
2023-04-18T11:13:11.379Z,54.5473
2023-04-18T11:14:12.602Z,54.4123
2023-04-18T11:15:14.523Z,54.0786
2023-04-18T11:16:15.926Z,54.4053
2023-04-18T11:17:17.060Z,54.4483
2023-04-18T11:18:18.183Z,54.2862
2023-04-18T11:19:19.326Z,54.2652
2023-04-18T11:20:20.418Z,54.8126
2023-04-18T11:21:21.567Z,54.4049
2023-04-18T11:22:22.687Z,53.4933
2023-04-18T11:23:23.839Z,52.7431
2023-04-18T11:24:24.937Z,52.6143
2023-04-18T11:25:26.078Z,53.1716
2023-04-18T11:26:27.218Z,54.0286
2023-04-18T11:27:28.345Z,53.7439
2023-04-18T11:28:29.460Z,52.6539
2023-04-18T11:29:30.574Z,52.2031
2023-04-18T11:30:31.927Z,51.9025
2023-04-18T11:31:33.060Z,51.8261
2023-04-18T11:32:34.589Z,51.9145
2023-04-18T11:33:35.786Z,52.5912
2023-04-18T11:34:36.852Z,52.9207
2023-04-18T11:35:37.997Z,53.5646
2023-04-18T11:36:39.155Z,53.3356
2023-04-18T11:37:40.326Z,52.5294
2023-04-18T11:38:41.714Z,52.7915
2023-04-18T11:39:42.906Z,52.9955
2023-04-18T11:40:44.072Z,52.5527
2023-04-18T11:41:45.262Z,52.0720
2023-04-18T11:42:46.414Z,51.8662
2023-04-18T11:43:47.578Z,51.8930
2023-04-18T11:44:48.698Z,52.0248
2023-04-18T11:45:49.939Z,52.3519
2023-04-18T11:46:51.146Z,52.7438
2023-04-18T11:47:52.349Z,51.7281
2023-04-18T11:48:53.496Z,51.1474
2023-04-18T11:49:56.907Z,50.8049
2023-04-18T11:50:55.603Z,50.7587
2023-04-18T11:51:56.744Z,50.9851
2023-04-18T11:52:57.884Z,51.1511
2023-04-18T11:53:59.031Z,50.6262
2023-04-18T11:55:00.182Z,50.6931
2023-04-18T11:56:01.266Z,51.1375
2023-04-18T11:57:02.378Z,50.5014
2023-04-18T11:58:03.512Z,50.2594
2023-04-18T11:59:04.631Z,50.1296
2023-04-18T12:00:05.746Z,48.7254
2023-04-18T12:01:06.845Z,46.8144
2023-04-18T12:02:16.034Z,45.5807
2023-04-18T12:03:11.771Z,45.2980
2023-04-18T12:04:12.141Z,45.3475
2023-04-18T12:05:13.918Z,46.0467
2023-04-18T12:06:15.510Z,47.0714
2023-04-18T12:07:16.587Z,47.1925
2023-04-18T12:08:17.730Z,46.7942
2023-04-18T12:09:18.833Z,45.7428
2023-04-18T12:10:19.928Z,46.1047
2023-04-18T12:11:21.031Z,46.0916
2023-04-18T12:12:22.182Z,44.5769
2023-04-18T12:13:23.247Z,43.6490
2023-04-18T12:14:24.392Z,42.3041
2023-04-18T12:15:25.634Z,41.7679
2023-04-18T12:16:26.896Z,42.0767
2023-04-18T12:17:28.019Z,43.0202
2023-04-18T12:18:29.163Z,43.1640
2023-04-18T12:19:30.309Z,42.5161